createdAt,value
2023-03-22T00:02:05.360Z,4.82
2023-03-22T00:04:32.630Z,5.38
2023-03-22T00:06:59.597Z,2.35
2023-03-22T00:09:26.103Z,6.05
2023-03-22T00:11:52.572Z,5.00
2023-03-22T00:14:19.214Z,3.15
2023-03-22T00:16:49.297Z,2.35
2023-03-22T00:19:17.426Z,4.35
2023-03-22T00:21:44.702Z,1.00
2023-03-22T00:24:11.264Z,5.45
2023-03-22T00:26:37.864Z,4.43
2023-03-22T00:29:04.490Z,5.65
2023-03-22T00:31:31.200Z,3.38
2023-03-22T00:33:57.687Z,5.43
2023-03-22T00:36:24.158Z,5.53
2023-03-22T00:38:51.762Z,5.53
2023-03-22T00:41:21.271Z,3.85
2023-03-22T00:43:48.953Z,4.95
2023-03-22T00:46:17.073Z,3.28
2023-03-22T00:48:44.097Z,5.50
2023-03-22T00:51:11.265Z,3.03
2023-03-22T00:53:39.849Z,3.00
2023-03-22T00:56:08.463Z,3.33
2023-03-22T00:58:35.750Z,5.57
2023-03-22T01:01:02.306Z,6.72
2023-03-22T01:03:28.956Z,5.22
2023-03-22T01:05:55.573Z,6.20
2023-03-22T01:08:23.501Z,6.55
2023-03-22T01:10:50.737Z,6.03
2023-03-22T01:13:18.137Z,5.00
2023-03-22T01:15:45.137Z,6.55
2023-03-22T01:18:11.688Z,6.30
2023-03-22T01:20:38.612Z,3.65
2023-03-22T01:23:05.388Z,6.97
2023-03-22T01:25:31.961Z,7.13
2023-03-22T01:27:58.941Z,6.90
2023-03-22T01:30:25.973Z,2.75
2023-03-22T01:32:52.564Z,2.15
2023-03-22T01:35:19.207Z,6.90
2023-03-22T01:37:45.836Z,3.33
2023-03-22T01:40:14.787Z,4.07
2023-03-22T01:42:41.639Z,6.47
2023-03-22T01:45:14.367Z,6.28
2023-03-22T01:47:52.184Z,6.95
2023-03-22T01:50:19.935Z,3.63
2023-03-22T01:52:47.464Z,6.93
2023-03-22T01:55:14.150Z,7.53
2023-03-22T01:57:42.203Z,7.13
2023-03-22T02:00:15.942Z,7.10
2023-03-22T02:02:44.061Z,7.82
2023-03-22T02:05:12.254Z,7.18
2023-03-22T02:07:41.097Z,6.03
2023-03-22T02:10:16.856Z,7.53
2023-03-22T02:12:50.764Z,6.93
2023-03-22T02:15:20.580Z,7.13
2023-03-22T02:18:16.640Z,7.30
2023-03-22T02:20:47.082Z,3.60
2023-03-22T02:23:30.319Z,6.70
2023-03-22T02:26:41.611Z,6.97
2023-03-22T02:29:31.464Z,3.60
2023-03-22T02:32:23.134Z,3.58
2023-03-22T02:35:07.918Z,6.47
2023-03-22T02:38:04.903Z,7.87
2023-03-22T02:40:50.553Z,7.38
2023-03-22T02:43:23.580Z,7.90
2023-03-22T02:46:14.401Z,4.97
2023-03-22T02:49:10.663Z,7.35
2023-03-22T02:51:42.575Z,7.43
2023-03-22T02:54:20.707Z,7.70
2023-03-22T02:56:54.326Z,7.43
2023-03-22T02:59:23.622Z,7.10
2023-03-22T03:01:57.337Z,5.22
2023-03-22T03:04:29.164Z,7.40
2023-03-22T03:07:00.678Z,9.05
2023-03-22T03:09:28.021Z,9.05
2023-03-22T03:11:54.816Z,7.43
2023-03-22T03:14:32.115Z,8.38
2023-03-22T03:17:08.445Z,9.30
2023-03-22T03:19:49.800Z,5.20
2023-03-22T03:22:51.323Z,8.85
2023-03-22T03:25:46.365Z,8.48
2023-03-22T03:28:30.264Z,4.65
2023-03-22T03:31:06.459Z,9.13
2023-03-22T03:33:35.903Z,8.35
2023-03-22T03:36:06.449Z,2.92
2023-03-22T03:38:36.752Z,8.85
2023-03-22T03:41:08.374Z,8.88
2023-03-22T03:43:35.854Z,8.57
2023-03-22T03:46:03.106Z,9.00
2023-03-22T03:48:33.248Z,8.52
2023-03-22T03:51:01.919Z,9.68
2023-03-22T03:53:29.750Z,9.05
2023-03-22T03:55:56.305Z,3.03
2023-03-22T03:58:23.094Z,6.32
2023-03-22T04:00:50.273Z,8.95
2023-03-22T04:03:17.223Z,7.07
2023-03-22T04:05:44.176Z,8.32
2023-03-22T04:08:10.630Z,3.38
2023-03-22T04:10:37.278Z,7.80
2023-03-22T04:13:03.968Z,9.35
2023-03-22T04:15:30.534Z,9.50
2023-03-22T04:17:57.320Z,7.80
2023-03-22T04:20:26.126Z,10.60
2023-03-22T04:22:52.741Z,8.48
2023-03-22T04:25:19.236Z,8.10
2023-03-22T04:27:50.958Z,9.57
2023-03-22T04:30:21.971Z,7.97
2023-03-22T04:32:49.629Z,3.55
2023-03-22T04:35:16.569Z,7.63
2023-03-22T04:37:43.140Z,9.25
2023-03-22T04:40:17.366Z,3.85
2023-03-22T04:42:44.807Z,7.30
2023-03-22T04:45:12.512Z,9.25
2023-03-22T04:47:39.254Z,5.55
2023-03-22T04:50:08.033Z,7.32
2023-03-22T04:52:34.694Z,6.13
2023-03-22T04:55:01.322Z,5.10
2023-03-22T04:57:27.887Z,6.43
2023-03-22T04:59:54.461Z,2.95
2023-03-22T05:02:21.163Z,1.95
2023-03-22T05:04:47.737Z,6.05
2023-03-22T05:07:14.299Z,2.42
2023-03-22T05:09:40.998Z,4.30
2023-03-22T05:12:07.570Z,5.22
2023-03-22T05:14:34.091Z,6.15
2023-03-22T05:17:00.614Z,2.92
2023-03-22T05:19:27.565Z,6.53
2023-03-22T05:21:58.306Z,1.38
2023-03-22T05:24:25.210Z,3.63
2023-03-22T05:26:53.862Z,4.30
2023-03-22T05:29:21.449Z,3.33
2023-03-22T05:31:48.430Z,5.85
2023-03-22T05:34:15.069Z,4.05
2023-03-22T05:36:41.623Z,6.75
2023-03-22T05:39:08.133Z,4.15
2023-03-22T05:41:36.498Z,6.18
2023-03-22T05:44:04.081Z,3.25
2023-03-22T05:46:30.921Z,2.75
2023-03-22T05:48:57.634Z,6.03
2023-03-22T05:51:25.757Z,3.55
2023-03-22T05:53:53.542Z,3.15
2023-03-22T05:56:25.760Z,5.32
2023-03-22T05:58:52.334Z,2.85
2023-03-22T06:01:21.484Z,3.42
2023-03-22T06:03:48.888Z,3.33
2023-03-22T06:06:15.827Z,3.45
2023-03-22T06:08:42.926Z,3.60
2023-03-22T06:11:09.742Z,1.98
2023-03-22T06:13:37.431Z,1.90
2023-03-22T06:16:05.577Z,5.07
2023-03-22T06:18:32.924Z,4.53
2023-03-22T06:20:59.516Z,2.55
2023-03-22T06:23:26.052Z,2.58
2023-03-22T06:25:52.529Z,2.42
2023-03-22T06:28:19.047Z,4.00
2023-03-22T06:30:45.760Z,2.60
2023-03-22T06:33:12.351Z,3.53
2023-03-22T06:35:38.943Z,4.10
2023-03-22T06:38:05.830Z,3.20
2023-03-22T06:40:32.328Z,3.78
2023-03-22T06:43:01.675Z,3.08
2023-03-22T06:45:33.380Z,3.72
2023-03-22T06:48:00.982Z,3.20
2023-03-22T06:50:28.985Z,2.53
2023-03-22T06:52:55.714Z,3.33
2023-03-22T06:55:22.375Z,2.15
2023-03-22T06:57:48.891Z,2.10
2023-03-22T07:00:16.028Z,3.38
2023-03-22T07:02:42.503Z,2.78
2023-03-22T07:05:09.343Z,3.10
2023-03-22T07:07:35.838Z,2.88
2023-03-22T07:10:02.406Z,3.40
2023-03-22T07:12:28.887Z,2.45
2023-03-22T07:14:55.599Z,2.72
2023-03-22T07:17:22.060Z,1.17
2023-03-22T07:19:48.922Z,3.25
2023-03-22T07:22:15.532Z,3.22
2023-03-22T07:24:53.865Z,3.75
2023-03-22T07:27:23.033Z,2.88
2023-03-22T07:29:49.533Z,4.22
2023-03-22T07:32:16.339Z,3.88
2023-03-22T07:34:43.016Z,3.40
2023-03-22T07:37:09.573Z,1.25
2023-03-22T07:39:36.256Z,2.20
2023-03-22T07:42:03.196Z,3.92
2023-03-22T07:44:29.711Z,3.50
2023-03-22T07:46:56.325Z,2.45
2023-03-22T07:49:22.948Z,1.90
2023-03-22T07:51:49.415Z,2.75
2023-03-22T07:54:32.194Z,3.17
2023-03-22T07:57:02.730Z,3.22
2023-03-22T07:59:29.241Z,3.33
2023-03-22T08:01:55.784Z,2.17
2023-03-22T08:04:22.740Z,3.20
2023-03-22T08:06:49.866Z,3.05
2023-03-22T08:09:16.586Z,2.13
2023-03-22T08:11:43.140Z,2.78
2023-03-22T08:14:09.998Z,1.75
2023-03-22T08:16:36.582Z,2.95
2023-03-22T08:19:03.187Z,2.20
2023-03-22T08:21:32.358Z,2.40
2023-03-22T08:23:58.813Z,2.33
2023-03-22T08:26:26.151Z,3.42
2023-03-22T08:28:53.219Z,2.28
2023-03-22T08:31:20.165Z,1.75
2023-03-22T08:33:51.125Z,2.17
2023-03-22T08:36:22.730Z,1.73
2023-03-22T08:38:49.550Z,1.83
2023-03-22T08:41:16.535Z,0.82
2023-03-22T08:43:43.275Z,2.10
2023-03-22T08:46:10.170Z,2.30
2023-03-22T08:48:37.948Z,1.33
2023-03-22T08:51:06.417Z,1.35
2023-03-22T08:53:32.996Z,2.05
2023-03-22T08:56:01.761Z,2.33
2023-03-22T08:58:28.495Z,0.90
2023-03-22T09:00:55.287Z,0.80
2023-03-22T09:03:23.942Z,1.00
2023-03-22T09:05:51.106Z,1.25
2023-03-22T09:08:19.501Z,0.85
2023-03-22T09:10:51.959Z,2.22
2023-03-22T09:13:19.628Z,1.60
2023-03-22T09:15:46.293Z,2.28
2023-03-22T09:18:13.364Z,1.48
2023-03-22T09:20:40.414Z,2.10
2023-03-22T09:23:07.114Z,1.45
2023-03-22T09:25:33.656Z,1.55
2023-03-22T09:28:00.157Z,1.45
2023-03-22T09:30:27.224Z,1.08
2023-03-22T09:32:53.817Z,1.80
2023-03-22T09:35:20.416Z,1.42
2023-03-22T09:37:47.457Z,2.10
2023-03-22T09:40:14.055Z,2.58
2023-03-22T09:42:51.253Z,2.70
2023-03-22T09:45:30.005Z,2.10
2023-03-22T09:47:58.949Z,1.92
2023-03-22T09:50:29.930Z,2.67
2023-03-22T09:52:56.414Z,1.48
2023-03-22T09:55:39.617Z,1.15
2023-03-22T09:58:36.017Z,2.35
2023-03-22T10:01:05.230Z,2.30
2023-03-22T10:03:40.728Z,1.60
2023-03-22T10:09:04.619Z,1.27
2023-03-22T10:11:51.853Z,2.55
2023-03-22T10:14:34.222Z,1.30
2023-03-22T10:17:06.796Z,1.60
2023-03-22T10:19:46.553Z,1.63
2023-03-22T10:22:16.398Z,1.10
2023-03-22T10:24:46.344Z,1.13
2023-03-22T10:27:17.175Z,2.03
2023-03-22T10:29:48.435Z,1.98
2023-03-22T10:32:18.086Z,1.40
2023-03-22T10:34:45.485Z,2.20
2023-03-22T10:37:20.498Z,1.30
2023-03-22T10:39:50.870Z,0.85
2023-03-22T10:42:22.123Z,1.98
2023-03-22T10:44:53.633Z,1.60
2023-03-22T10:47:31.180Z,1.50
2023-03-22T10:50:03.502Z,2.63
2023-03-22T10:52:49.804Z,2.13
2023-03-22T10:55:17.329Z,1.73
2023-03-22T10:58:26.132Z,2.22
2023-03-22T11:00:56.864Z,0.75
2023-03-22T11:03:35.306Z,1.00
2023-03-22T11:06:17.418Z,2.00
2023-03-22T11:08:52.714Z,1.77
2023-03-22T11:13:58.945Z,1.20
2023-03-22T11:16:25.857Z,1.10
2023-03-22T11:18:52.625Z,2.20
2023-03-22T11:21:33.116Z,1.50
2023-03-22T11:24:13.095Z,1.75
2023-03-22T11:26:41.636Z,0.90
2023-03-22T11:29:14.404Z,2.05
2023-03-22T11:31:56.099Z,1.63
2023-03-22T11:34:26.335Z,1.83
2023-03-22T11:36:56.829Z,1.58
2023-03-22T11:39:28.107Z,1.00
2023-03-22T11:42:01.827Z,2.90
2023-03-22T11:44:34.042Z,2.47
2023-03-22T11:47:02.616Z,2.10
2023-03-22T11:49:50.276Z,1.83
2023-03-22T11:52:21.772Z,2.35
2023-03-22T11:54:49.042Z,1.95
2023-03-22T11:57:20.396Z,2.33
2023-03-22T11:59:48.748Z,1.50
2023-03-22T12:02:32.510Z,1.83
2023-03-22T12:05:14.074Z,1.50
2023-03-22T12:07:41.387Z,0.30
2023-03-22T12:10:21.446Z,1.02
2023-03-22T12:12:57.274Z,1.25
2023-03-22T12:15:31.660Z,1.55
2023-03-22T12:18:10.924Z,1.20
2023-03-22T12:20:47.574Z,2.05
2023-03-22T12:23:17.871Z,1.80
2023-03-22T12:25:50.604Z,2.28
2023-03-22T12:28:26.124Z,2.53
2023-03-22T12:30:56.097Z,1.27
2023-03-22T12:33:38.935Z,1.95
2023-03-22T12:36:07.097Z,2.67
2023-03-22T12:38:41.122Z,2.20
2023-03-22T12:41:12.558Z,1.08
2023-03-22T12:43:41.780Z,1.55
2023-03-22T12:46:16.769Z,1.42
2023-03-22T12:48:48.512Z,0.90
2023-03-22T12:51:15.311Z,1.05
2023-03-22T12:53:48.897Z,1.65
2023-03-22T12:56:35.841Z,1.70
2023-03-22T12:59:05.835Z,1.63
2023-03-22T13:01:58.338Z,1.17
2023-03-22T13:04:31.721Z,1.35
2023-03-22T13:07:15.457Z,1.20
2023-03-22T13:09:49.984Z,1.92
2023-03-22T13:12:16.536Z,1.03
2023-03-22T13:14:51.881Z,1.60
2023-03-22T13:17:24.931Z,1.80
2023-03-22T13:19:58.701Z,1.02
2023-03-22T13:22:38.863Z,1.08
2023-03-22T13:25:16.670Z,1.02
2023-03-22T13:28:03.292Z,1.20
2023-03-22T13:30:35.593Z,0.95
2023-03-22T13:33:08.654Z,1.25
2023-03-22T13:35:38.602Z,1.27
2023-03-22T13:38:10.534Z,2.17
2023-03-22T13:41:08.400Z,1.00
2023-03-22T13:43:50.045Z,1.20
2023-03-22T13:46:16.618Z,0.90
2023-03-22T13:49:01.725Z,1.60
2023-03-22T13:51:31.790Z,1.02
2023-03-22T13:54:16.489Z,1.25
2023-03-22T13:56:58.362Z,1.10
2023-03-22T13:59:28.002Z,1.90
2023-03-22T14:01:59.528Z,1.42
2023-03-22T14:04:34.956Z,1.40
2023-03-22T14:07:21.669Z,2.05
2023-03-22T14:09:56.988Z,1.75
2023-03-22T14:15:19.113Z,1.70
2023-03-22T14:17:56.720Z,1.63
2023-03-22T14:20:30.281Z,0.90
